Time;durP1;ratioP1;P1;durP2;ratioP2;P2;SDS_P1;SDS_P2;PMS_P1;PMS_P2;Temp;Humidity;BMP_temperature;BMP_pressure;BME280_temperature;BME280_humidity;BME280_pressure;Samples;Min_cycle;Max_cycle;Signal;HPM_P1;HPM_P2
2021/04/11 00:01:09;;;;;;;15.20;9.73;;;;;;;6.73;90.51;100229.19;115747;1209;62503;-79
2021/04/11 00:03:35;;;;;;;13.85;9.00;;;;;;;6.71;90.58;100233.80;115742;1209;62663;-79
2021/04/11 00:06:04;;;;;;;19.33;11.67;;;;;;;6.70;90.50;100226.89;115822;1209;63971;-79
2021/04/11 00:08:31;;;;;;;20.63;12.90;;;;;;;6.69;90.51;100227.86;115885;1209;64256;-79
2021/04/11 00:11:00;;;;;;;22.93;14.53;;;;;;;6.68;90.53;100221.77;115877;1209;62741;-80
2021/04/11 00:13:31;;;;;;;17.37;12.33;;;;;;;6.68;90.48;100215.69;115892;1209;62269;-79
2021/04/11 00:15:58;;;;;;;20.95;13.40;;;;;;;6.68;90.74;100213.86;115832;1209;62360;-80
2021/04/11 00:18:24;;;;;;;20.20;13.90;;;;;;;6.68;90.76;100207.78;115775;1209;62514;-79
2021/04/11 00:20:51;;;;;;;22.43;14.57;;;;;;;6.70;90.70;100200.53;115756;1209;62203;-79
2021/04/11 00:23:20;;;;;;;15.97;11.00;;;;;;;6.69;90.80;100193.59;115758;1208;62464;-79
2021/04/11 00:25:47;;;;;;;19.20;12.35;;;;;;;6.68;90.56;100194.59;115804;1209;62381;-79
2021/04/11 00:28:14;;;;;;;19.37;13.50;;;;;;;6.67;90.88;100191.14;115803;1209;62219;-80
2021/04/11 00:30:41;;;;;;;17.77;10.80;;;;;;;6.68;91.14;100194.59;115820;1209;63600;-79
2021/04/11 00:33:19;;;;;;;19.17;13.47;;;;;;;6.68;91.05;100189.33;115788;1209;62644;-79
2021/04/11 00:35:45;;;;;;;21.25;13.65;;;;;;;6.67;90.99;100191.14;115769;1209;62419;-78
2021/04/11 00:38:12;;;;;;;20.57;10.90;;;;;;;6.69;90.94;100183.05;115837;1209;62365;-79
2021/04/11 00:40:38;;;;;;;18.40;13.60;;;;;;;6.69;91.02;100177.78;115744;1209;62442;-79
2021/04/11 00:43:12;;;;;;;19.10;12.47;;;;;;;6.69;90.75;100172.51;115743;1209;62884;-78
2021/04/11 00:45:52;;;;;;;21.47;12.77;;;;;;;6.71;90.94;100170.54;115803;1209;62501;-78
2021/04/11 00:48:22;;;;;;;21.37;13.70;;;;;;;6.71;90.66;100171.35;115840;1209;62235;-79
2021/04/11 00:50:55;;;;;;;19.67;12.17;;;;;;;6.72;90.78;100174.84;115720;1209;62414;-79
2021/04/11 00:53:22;;;;;;;20.83;13.70;;;;;;;6.72;90.85;100173.02;115856;1209;62225;-79
2021/04/11 00:55:50;;;;;;;20.03;13.37;;;;;;;6.72;90.83;100169.56;115813;1209;62979;-79
2021/04/11 00:58:18;;;;;;;14.30;9.70;;;;;;;6.70;91.01;100164.45;115732;1209;62446;-79
2021/04/11 01:00:44;;;;;;;17.97;11.57;;;;;;;6.70;91.01;100155.72;115818;1209;62213;-79
2021/04/11 01:03:16;;;;;;;22.80;14.33;;;;;;;6.72;90.82;100149.30;115742;1209;62452;-79
2021/04/11 01:05:43;;;;;;;25.20;15.90;;;;;;;6.69;90.73;100141.73;115754;1209;62351;-80
2021/04/11 01:08:16;;;;;;;19.70;12.20;;;;;;;6.73;90.90;100144.84;115799;1209;62952;-80
2021/04/11 01:10:55;;;;;;;15.87;9.53;;;;;;;6.71;91.28;100137.09;115784;1209;62387;-80
2021/04/11 01:13:22;;;;;;;18.17;11.83;;;;;;;6.73;91.06;100136.93;115840;1209;62248;-78
2021/04/11 01:15:49;;;;;;;16.93;9.87;;;;;;;6.74;90.89;100138.59;115811;1209;62568;-77
2021/04/11 01:18:17;;;;;;;19.03;12.27;;;;;;;6.74;90.81;100123.59;115828;1209;62274;-77
2021/04/11 01:20:44;;;;;;;21.00;12.73;;;;;;;6.76;90.94;100126.08;115828;1209;62349;-77
2021/04/11 01:23:23;;;;;;;22.57;12.23;;;;;;;6.75;90.92;100127.05;115832;1209;62536;-78
2021/04/11 01:25:51;;;;;;;16.10;11.13;;;;;;;6.75;91.23;100119.14;115807;1209;62360;-78
2021/04/11 01:28:23;;;;;;;15.97;10.80;;;;;;;6.74;91.30;100123.59;115779;1209;62755;-77
2021/04/11 01:30:54;;;;;;;19.63;13.30;;;;;;;6.73;90.95;100116.66;115744;1209;62501;-78
2021/04/11 01:33:25;;;;;;;21.37;12.93;;;;;;;6.75;90.85;100119.14;115806;1209;64296;-78
2021/04/11 01:35:55;;;;;;;20.83;14.57;;;;;;;6.75;90.90;100111.23;115835;1209;62275;-78
2021/04/11 01:38:23;;;;;;;17.50;10.85;;;;;;;6.76;91.09;100112.90;115837;1209;62357;-77
2021/04/11 01:41:21;;;;;;;21.43;14.37;;;;;;;6.76;91.04;100110.27;115845;1209;62136;-77
2021/04/11 01:43:50;;;;;;;20.53;13.07;;;;;;;6.77;91.05;100106.63;115737;1209;62187;-77
2021/04/11 01:46:19;;;;;;;20.73;12.83;;;;;;;6.79;91.20;100099.38;115851;1209;62914;-76
2021/04/11 01:48:47;;;;;;;22.97;13.57;;;;;;;6.79;91.14;100096.73;115782;1209;62502;-77
2021/04/11 01:51:16;;;;;;;10.30;6.60;;;;;;;6.79;91.17;100096.73;115771;1209;63487;-77
2021/04/11 01:53:44;;;;;;;12.63;9.13;;;;;;;6.79;91.14;100096.73;115748;1209;62673;-77
2021/04/11 01:56:12;;;;;;;23.65;14.75;;;;;;;6.80;90.91;100095.77;115777;1209;62437;-77
2021/04/11 01:58:40;;;;;;;20.67;12.67;;;;;;;6.84;90.81;100088.33;115843;1209;62957;-77
2021/04/11 02:01:26;;;;;;;23.87;12.73;;;;;;;6.84;90.63;100086.54;115773;1209;62939;-77
2021/04/11 02:03:58;;;;;;;23.73;13.90;;;;;;;6.83;90.53;100090.15;115795;1209;64122;-77
2021/04/11 02:06:27;;;;;;;22.87;13.47;;;;;;;6.83;90.58;100084.88;115869;1209;62150;-77
2021/04/11 02:08:57;;;;;;;19.10;13.07;;;;;;;6.83;90.68;100084.88;115833;1209;63183;-77
2021/04/11 02:11:23;;;;;;;17.97;10.90;;;;;;;6.84;90.31;100080.42;115834;1209;62887;-77
2021/04/11 02:13:51;;;;;;;22.20;15.40;;;;;;;6.82;90.89;100071.85;115731;1209;63220;-77
2021/04/11 02:16:24;;;;;;;16.00;10.05;;;;;;;6.81;90.79;100078.95;115790;1209;62616;-76
2021/04/11 02:19:11;;;;;;;13.45;8.60;;;;;;;6.79;91.04;100067.74;115777;1209;63203;-76
2021/04/11 02:21:39;;;;;;;24.90;14.95;;;;;;;6.80;90.70;100063.28;115840;1209;62262;-77
2021/04/11 02:24:08;;;;;;;22.10;14.63;;;;;;;6.81;90.73;100060.49;115826;1209;62939;-77
2021/04/11 02:26:37;;;;;;;22.57;14.60;;;;;;;6.83;90.61;100065.61;115779;1209;62493;-76
2021/04/11 02:29:07;;;;;;;21.87;14.03;;;;;;;6.84;90.75;100059.33;115819;1209;62805;-76
2021/04/11 02:31:34;;;;;;;21.53;12.30;;;;;;;6.84;90.81;100054.91;115777;1209;62622;-78
2021/04/11 02:34:03;;;;;;;21.33;13.50;;;;;;;6.88;90.83;100058.01;115758;1209;62589;-77
2021/04/11 02:36:38;;;;;;;23.25;15.55;;;;;;;6.89;90.74;100057.03;115765;1209;64284;-78
2021/04/11 02:39:12;;;;;;;23.25;13.30;;;;;;;6.91;90.92;100061.14;115810;1209;62510;-77
2021/04/11 02:41:40;;;;;;;22.80;14.17;;;;;;;6.92;90.78;100051.41;115793;1209;63177;-77
2021/04/11 02:44:08;;;;;;;22.50;14.40;;;;;;;6.96;90.71;100050.09;115855;1209;62557;-77
2021/04/11 02:46:37;;;;;;;23.97;14.63;;;;;;;6.98;90.81;100048.11;115836;1209;62590;-77
2021/04/11 02:49:08;;;;;;;23.20;14.67;;;;;;;7.00;90.80;100045.31;115786;1209;63952;-77
2021/04/11 02:51:35;;;;;;;22.30;13.47;;;;;;;7.03;90.78;100042.33;115751;1209;62445;-77
2021/04/11 02:54:05;;;;;;;24.53;13.97;;;;;;;7.05;90.67;100048.27;115755;1209;62617;-77
2021/04/11 02:56:32;;;;;;;12.43;8.20;;;;;;;7.08;90.71;100045.30;115788;1209;62125;-78
2021/04/11 02:58:59;;;;;;;18.00;12.70;;;;;;;7.08;90.78;100046.13;115800;1209;62522;-78
2021/04/11 03:01:32;;;;;;;12.50;8.43;;;;;;;7.10;90.81;100040.69;115808;1209;63379;-78
2021/04/11 03:03:58;;;;;;;17.77;11.73;;;;;;;7.10;90.83;100048.59;115834;1209;62204;-77
2021/04/11 03:06:28;;;;;;;14.97;9.00;;;;;;;7.11;90.99;100045.77;115785;1209;62777;-77
2021/04/11 03:08:57;;;;;;;23.87;12.10;;;;;;;7.11;90.84;100047.59;115776;1209;62788;-77
2021/04/11 03:11:42;;;;;;;17.05;10.65;;;;;;;7.13;90.60;100053.53;115748;1209;62468;-77
2021/04/11 03:14:13;;;;;;;17.77;11.83;;;;;;;7.13;90.89;100042.98;115768;1209;62419;-78
2021/04/11 03:16:42;;;;;;;18.53;12.60;;;;;;;7.13;91.16;100048.25;115871;1209;62388;-78
2021/04/11 03:19:11;;;;;;;18.77;12.27;;;;;;;7.13;91.05;100048.25;115841;1209;63254;-78
2021/04/11 03:21:41;;;;;;;14.13;7.83;;;;;;;7.14;91.37;100042.00;115763;1209;62263;-77
2021/04/11 03:24:08;;;;;;;15.13;8.93;;;;;;;7.14;91.50;100044.64;115769;1209;62397;-77
2021/04/11 03:26:42;;;;;;;24.90;13.10;;;;;;;7.14;91.23;100042.81;115815;1209;62858;-77
2021/04/11 03:29:36;;;;;;;20.53;11.57;;;;;;;7.15;91.28;100047.08;115765;1209;62346;-77
2021/04/11 03:32:14;;;;;;;21.50;13.77;;;;;;;7.15;91.23;100041.80;115617;1209;63158;-77
2021/04/11 03:34:44;;;;;;;18.97;11.73;;;;;;;7.17;91.19;100041.65;115861;1209;63182;-77
2021/04/11 03:37:13;;;;;;;20.33;12.53;;;;;;;7.17;91.23;100044.28;115860;1209;62183;-78
2021/04/11 03:39:40;;;;;;;21.30;12.47;;;;;;;7.18;90.87;100040.64;115824;1209;63718;-78
2021/04/11 03:42:11;;;;;;;16.70;10.13;;;;;;;7.19;91.21;100042.30;115796;1207;64117;-76
2021/04/11 03:44:37;;;;;;;15.67;10.07;;;;;;;7.19;91.13;100037.03;115821;1209;62794;-77
2021/04/11 03:47:22;;;;;;;17.87;12.57;;;;;;;7.19;91.18;100037.03;115834;1209;62749;-77
2021/04/11 03:50:05;;;;;;;19.87;13.73;;;;;;;7.21;91.22;100037.69;115816;1209;62308;-77
2021/04/11 03:52:38;;;;;;;21.35;13.25;;;;;;;7.23;91.20;100027.78;115833;1209;62849;-77
2021/04/11 03:55:10;;;;;;;20.57;13.40;;;;;;;7.25;91.24;100030.27;115817;1209;62418;-76
2021/04/11 03:57:49;;;;;;;20.77;13.23;;;;;;;7.28;91.23;100028.09;115811;1209;62396;-77
2021/04/11 04:00:45;;;;;;;14.33;8.97;;;;;;;7.29;91.56;100032.39;115806;1209;62215;-76
2021/04/11 04:03:16;;;;;;;16.97;9.93;;;;;;;7.30;91.75;100028.73;115794;1209;62228;-76
2021/04/11 04:05:43;;;;;;;21.73;13.37;;;;;;;7.32;91.65;100010.92;115844;1209;62951;-77
2021/04/11 04:08:10;;;;;;;21.05;12.25;;;;;;;7.36;91.84;100014.06;115799;1209;62366;-77
2021/04/11 04:10:58;;;;;;;17.10;11.27;;;;;;;7.39;92.52;100012.88;115794;1209;62366;-78
2021/04/11 04:13:44;;;;;;;13.50;7.80;;;;;;;7.42;92.73;100015.20;115820;1209;62391;-77
2021/04/11 04:16:30;;;;;;;12.53;8.00;;;;;;;7.42;92.88;99994.91;115857;1209;62353;-77
2021/04/11 04:19:26;;;;;;;19.73;11.63;;;;;;;7.46;92.45;99983.02;115811;1209;62171;-77
2021/04/11 04:21:56;;;;;;;;;;;;;;;7.50;92.99;99980.83;115834;1216;62632;-76
2021/04/11 04:24:38;;;;;;;18.10;10.30;;;;;;;7.54;92.37;99982.13;115849;1209;62119;-77
2021/04/11 04:27:27;;;;;;;11.50;6.53;;;;;;;7.56;92.62;99985.42;115814;1209;62932;-78
2021/04/11 04:29:57;;;;;;;11.90;7.77;;;;;;;7.56;92.46;99990.70;115835;1209;62263;-78
2021/04/11 04:32:48;;;;;;;17.90;10.50;;;;;;;7.58;92.56;99990.53;115822;1209;63074;-78
2021/04/11 04:35:23;;;;;;;15.70;10.75;;;;;;;7.59;92.38;99995.66;115871;1209;62213;-78
2021/04/11 04:38:14;;;;;;;18.48;11.35;;;;;;;7.62;92.42;100000.57;115814;1209;62471;-78
2021/04/11 04:40:47;;;;;;;25.25;13.75;;;;;;;7.65;92.12;100013.45;115869;1209;62323;-77
2021/04/11 04:43:26;;;;;;;24.00;13.97;;;;;;;7.70;91.96;100008.45;115786;1209;62425;-78
2021/04/11 04:46:17;;;;;;;21.83;14.00;;;;;;;7.75;92.06;100010.57;115830;1209;62274;-79
2021/04/11 04:49:14;;;;;;;20.20;13.07;;;;;;;7.79;91.68;100011.06;115850;1209;62725;-77
2021/04/11 04:51:48;;;;;;;19.70;11.73;;;;;;;7.78;91.67;99999.68;115810;1209;64110;-78
2021/04/11 04:54:41;;;;;;;14.23;9.23;;;;;;;7.74;91.66;99996.55;115861;1209;62322;-77
2021/04/11 04:57:17;;;;;;;14.53;8.90;;;;;;;7.71;91.71;99999.55;115811;1209;62319;-78
2021/04/11 05:00:06;;;;;;;16.10;10.97;;;;;;;7.70;91.03;99997.08;115852;1209;62172;-78
2021/04/11 05:02:54;;;;;;;15.15;9.20;;;;;;;7.69;91.64;99993.63;115797;1209;62201;-78
2021/04/11 05:05:23;;;;;;;16.87;10.40;;;;;;;7.66;91.87;99996.59;115822;1209;62208;-77
2021/04/11 05:08:23;;;;;;;15.10;10.17;;;;;;;7.67;91.75;99992.13;115804;1209;62185;-77
2021/04/11 05:11:01;;;;;;;17.53;10.80;;;;;;;7.69;91.93;99985.70;115803;1209;62274;-77
2021/04/11 05:13:32;;;;;;;20.67;12.40;;;;;;;7.71;91.75;99967.88;115806;1209;62951;-78
2021/04/11 05:16:07;;;;;;;17.23;9.60;;;;;;;7.76;91.74;99980.55;115778;1209;63223;-77
2021/04/11 05:18:43;;;;;;;13.80;9.15;;;;;;;7.81;91.97;99982.66;115806;1209;62799;-77
2021/04/11 05:21:15;;;;;;;14.50;9.17;;;;;;;7.85;91.84;99981.31;115840;1209;62382;-77
2021/04/11 05:23:42;;;;;;;14.00;7.50;;;;;;;7.89;91.78;99993.18;115870;1209;62183;-78
2021/04/11 05:26:20;;;;;;;16.50;9.47;;;;;;;7.93;91.48;99982.09;115862;1209;62551;-77
2021/04/11 05:29:02;;;;;;;16.77;9.93;;;;;;;7.99;91.13;99985.86;115866;1209;62242;-78
2021/04/11 05:31:37;;;;;;;17.93;10.37;;;;;;;8.06;91.23;99986.78;115826;1209;62338;-77
2021/04/11 05:34:07;;;;;;;16.33;9.90;;;;;;;8.12;91.10;99995.84;115768;1209;62023;-78
2021/04/11 05:36:52;;;;;;;19.33;12.13;;;;;;;8.17;91.22;99990.84;115830;1209;63153;-78
2021/04/11 05:39:36;;;;;;;14.37;7.93;;;;;;;8.23;90.49;99987.48;115819;1209;63034;-77
2021/04/11 05:42:15;;;;;;;20.60;12.55;;;;;;;8.28;90.26;99993.05;115818;1209;63077;-78
2021/04/11 05:44:56;;;;;;;18.30;12.57;;;;;;;8.36;90.35;99997.47;115717;1209;62385;-77
2021/04/11 05:47:37;;;;;;;10.67;5.90;;;;;;;8.39;89.86;99991.81;115774;1209;62629;-79
2021/04/11 05:50:10;;;;;;;15.97;9.17;;;;;;;8.45;90.41;99998.25;115786;1208;62384;-78
2021/04/11 05:52:55;;;;;;;14.63;8.73;;;;;;;8.50;89.67;100004.66;115805;1209;63102;-79
2021/04/11 05:55:24;;;;;;;18.17;10.13;;;;;;;8.56;89.35;99990.72;115746;1209;62244;-78
2021/04/11 05:58:04;;;;;;;19.45;12.95;;;;;;;8.63;89.31;99992.63;115776;1209;62685;-79
2021/04/11 06:00:37;;;;;;;15.83;9.30;;;;;;;8.73;89.63;99996.68;115754;1209;62756;-78
2021/04/11 06:03:08;;;;;;;19.77;11.53;;;;;;;8.84;89.07;99994.58;115872;1209;62361;-78
2021/04/11 06:05:42;;;;;;;16.40;10.25;;;;;;;8.90;88.78;99994.66;115757;1209;62428;-78
2021/04/11 06:08:41;;;;;;;18.47;12.50;;;;;;;8.96;88.54;99996.59;115826;1209;62797;-79
2021/04/11 06:11:25;;;;;;;14.87;9.57;;;;;;;9.04;88.53;100000.98;115785;1209;62844;-77
2021/04/11 06:13:59;;;;;;;16.77;10.77;;;;;;;9.08;88.44;99990.87;115825;1209;62295;-78
2021/04/11 06:16:27;;;;;;;15.57;10.10;;;;;;;9.12;88.59;99998.25;115836;1209;62720;-78
2021/04/11 06:18:56;;;;;;;11.50;8.30;;;;;;;9.21;88.33;99996.34;115734;1209;62872;-78
2021/04/11 06:21:31;;;;;;;14.93;10.27;;;;;;;9.31;87.99;99991.59;115784;1209;64291;-78
2021/04/11 06:24:33;;;;;;;17.35;12.50;;;;;;;9.39;87.72;99991.49;115805;1209;62913;-78
2021/04/11 06:27:39;;;;;;;15.03;10.80;;;;;;;9.49;87.22;99990.38;115784;1209;62354;-78
2021/04/11 06:30:06;;;;;;;17.40;10.60;;;;;;;9.54;87.31;100001.22;115824;1209;62027;-78
2021/04/11 06:32:44;;;;;;;14.70;9.50;;;;;;;9.56;86.82;99997.41;115788;1209;62030;-77
2021/04/11 06:35:13;;;;;;;14.60;9.10;;;;;;;9.57;87.02;99991.09;115764;1209;62515;-78
2021/04/11 06:37:43;;;;;;;13.17;8.13;;;;;;;9.56;86.51;99996.56;115811;1209;62534;-78
2021/04/11 06:40:37;;;;;;;11.40;7.83;;;;;;;9.55;86.41;99993.09;115772;1209;63143;-78
2021/04/11 06:43:22;;;;;;;12.90;8.47;;;;;;;9.53;86.59;99996.94;115793;1209;62452;-78
2021/04/11 06:45:59;;;;;;;19.70;11.05;;;;;;;9.53;86.48;99997.76;115815;1209;62222;-77
2021/04/11 06:48:42;;;;;;;16.20;10.60;;;;;;;9.55;86.24;99997.58;115804;1209;62369;-78
2021/04/11 06:51:27;;;;;;;13.33;8.00;;;;;;;9.56;85.99;99999.20;115805;1209;62278;-78
2021/04/11 06:54:19;;;;;;;;;;;;;;;9.56;86.12;100001.86;115825;1216;62455;-78
2021/04/11 06:57:17;;;;;;;13.47;8.13;;;;;;;9.57;85.85;99995.57;115859;1209;62408;-78
2021/04/11 07:00:01;;;;;;;12.23;8.07;;;;;;;9.60;86.16;99984.59;115772;1209;62890;-76
2021/04/11 07:03:10;;;;;;;10.90;7.15;;;;;;;9.66;86.21;99990.98;115782;1209;62493;-79
2021/04/11 07:05:55;;;;;;;9.60;6.50;;;;;;;9.76;85.39;99991.52;115775;1209;62675;-79
2021/04/11 07:08:49;;;;;;;14.03;8.70;;;;;;;9.94;85.47;99996.38;115792;1209;62220;-78
2021/04/11 07:11:49;;;;;;;12.10;7.80;;;;;;;10.08;84.87;99997.34;115807;1209;62194;-79
2021/04/11 07:14:53;;;;;;;11.00;6.90;;;;;;;10.18;84.08;100000.52;115825;1209;62374;-80
2021/04/11 07:17:40;;;;;;;15.40;9.15;;;;;;;10.32;84.65;99989.03;115808;1209;62271;-79
2021/04/11 07:20:16;;;;;;;13.13;7.97;;;;;;;10.41;83.00;99995.02;115821;1209;62475;-79
2021/04/11 07:23:24;;;;;;;10.60;7.30;;;;;;;10.45;83.43;99992.81;115810;1209;62358;-79
2021/04/11 07:26:27;;;;;;;15.73;10.03;;;;;;;10.48;83.15;99998.56;115767;1209;62290;-78
2021/04/11 07:29:07;;;;;;;12.80;8.23;;;;;;;10.51;82.40;100002.66;115817;1209;62204;-76
2021/04/11 07:31:50;;;;;;;16.40;9.85;;;;;;;10.54;82.88;100005.76;115812;1209;62383;-79
2021/04/11 07:35:01;;;;;;;10.57;7.67;;;;;;;10.63;82.72;100000.31;115816;1209;63283;-79
2021/04/11 07:37:33;;;;;;;15.35;9.35;;;;;;;10.71;82.16;99998.34;115825;1209;62123;-78
2021/04/11 07:40:16;;;;;;;16.17;9.87;;;;;;;10.73;81.50;100006.92;115810;1209;62396;-79
2021/04/11 07:43:21;;;;;;;13.03;8.27;;;;;;;10.73;81.48;100006.92;115756;1209;62497;-80
2021/04/11 07:46:10;;;;;;;16.50;11.23;;;;;;;10.70;81.18;100006.48;115783;1209;63441;-73
2021/04/11 07:48:37;;;;;;;19.13;12.37;;;;;;;10.67;80.88;100002.39;115784;1209;62173;-72
2021/04/11 07:51:31;;;;;;;14.00;9.70;;;;;;;10.68;81.48;100003.20;115764;1209;62246;-72
2021/04/11 07:54:23;;;;;;;15.43;7.20;;;;;;;10.67;81.29;99998.89;115749;1209;62550;-72
2021/04/11 07:57:30;;;;;;;11.43;7.15;;;;;;;10.68;81.66;100016.46;115788;1209;62720;-72
2021/04/11 08:00:14;;;;;;;12.07;7.90;;;;;;;10.72;81.88;100025.67;115809;1209;62144;-76
2021/04/11 08:03:03;;;;;;;10.05;5.60;;;;;;;10.72;81.36;100020.38;115808;1209;63549;-76
2021/04/11 08:06:27;;;;;;;11.63;6.27;;;;;;;10.73;81.87;100022.84;115817;1209;62290;-77
2021/04/11 08:09:14;;;;;;;12.00;7.50;;;;;;;10.77;82.15;100023.25;115506;1212;62303;-75
2021/04/11 08:11:56;;;;;;;10.70;6.55;;;;;;;10.78;81.59;100008.99;115504;1212;63581;-76
2021/04/11 08:14:44;;;;;;;10.60;6.33;;;;;;;10.80;81.30;100018.39;115766;1209;62497;-76
2021/04/11 08:17:22;;;;;;;9.90;7.23;;;;;;;10.87;81.63;100021.09;115811;1209;62367;-75
2021/04/11 08:20:12;;;;;;;12.87;7.80;;;;;;;10.93;81.96;100022.98;115855;1209;62808;-76
2021/04/11 08:22:48;;;;;;;11.13;8.33;;;;;;;10.97;81.56;100037.50;115820;1209;62359;-75
2021/04/11 08:25:20;;;;;;;14.07;8.33;;;;;;;11.01;81.28;100044.06;115857;1209;63037;-75
2021/04/11 08:28:22;;;;;;;12.67;8.40;;;;;;;11.02;81.51;100048.34;115783;1209;63914;-76
2021/04/11 08:31:22;;;;;;;14.53;8.73;;;;;;;11.01;81.17;100053.86;115831;1209;62603;-76
2021/04/11 08:34:14;;;;;;;12.15;7.95;;;;;;;10.99;80.50;100058.55;115770;1209;62441;-76
2021/04/11 08:37:14;;;;;;;13.10;8.20;;;;;;;10.97;80.83;100066.69;115796;1209;62154;-76
2021/04/11 08:40:00;;;;;;;11.57;7.90;;;;;;;10.95;80.74;100067.91;115678;1209;62909;-78
2021/04/11 08:43:11;;;;;;;11.50;7.93;;;;;;;10.93;80.79;100065.43;115784;1209;62629;-77
2021/04/11 08:46:02;;;;;;;14.93;8.20;;;;;;;10.92;80.32;100069.11;115792;1209;64128;-76
2021/04/11 08:49:02;;;;;;;11.10;7.17;;;;;;;10.93;80.59;100064.63;115726;1209;62533;-76
2021/04/11 08:52:07;;;;;;;11.27;6.27;;;;;;;10.92;80.00;100073.58;115810;1209;62679;-76
2021/04/11 08:54:51;;;;;;;8.20;6.85;;;;;;;10.89;79.05;100085.41;115854;1209;62586;-76
2021/04/11 08:57:49;;;;;;;10.23;6.57;;;;;;;10.83;79.29;100080.05;115696;1209;62384;-76
2021/04/11 09:00:24;;;;;;;11.00;7.43;;;;;;;10.75;79.97;100083.64;115816;1209;62172;-76
2021/04/11 09:03:30;;;;;;;10.27;7.13;;;;;;;10.71;80.46;100085.03;115786;1209;62642;-76
2021/04/11 09:05:59;;;;;;;10.27;7.37;;;;;;;10.67;80.57;100094.38;115758;1209;62238;-77
2021/04/11 09:08:32;;;;;;;7.63;5.17;;;;;;;10.61;80.94;100091.49;115793;1209;62454;-77
2021/04/11 09:11:04;;;;;;;8.30;5.40;;;;;;;10.53;81.52;100096.92;115752;1209;62673;-76
2021/04/11 09:13:48;;;;;;;11.07;6.87;;;;;;;10.42;81.75;100109.88;115838;1209;62526;-77
2021/04/11 09:16:24;;;;;;;8.30;5.60;;;;;;;10.31;82.59;100104.05;115783;1209;62410;-76
2021/04/11 09:19:07;;;;;;;11.00;6.07;;;;;;;10.23;83.17;100105.97;115814;1209;62243;-77
2021/04/11 09:22:21;;;;;;;10.27;6.10;;;;;;;10.13;83.98;100101.77;115838;1209;62598;-77
2021/04/11 09:25:18;;;;;;;14.20;6.07;;;;;;;10.06;84.46;100111.48;115470;1209;62507;-77
2021/04/11 09:28:12;;;;;;;9.65;5.40;;;;;;;10.05;84.98;100109.85;115810;1209;62394;-77
2021/04/11 09:30:57;;;;;;;7.73;4.87;;;;;;;10.06;85.40;100111.48;115731;1209;62468;-76
2021/04/11 09:33:39;;;;;;;;;;;;;;;10.07;85.46;100122.89;115818;1216;62313;-77
2021/04/11 09:36:26;;;;;;;7.55;5.40;;;;;;;10.07;84.71;100123.70;115785;1209;63024;-77
2021/04/11 09:39:11;;;;;;;8.20;4.80;;;;;;;10.08;85.00;100124.55;115789;1209;62503;-77
2021/04/11 09:42:08;;;;;;;7.70;5.30;;;;;;;10.08;85.33;100127.20;115784;1209;62378;-77
2021/04/11 09:44:49;;;;;;;6.80;4.30;;;;;;;10.07;85.44;100128.19;115750;1209;62612;-76
2021/04/11 09:47:50;;;;;;;4.35;2.50;;;;;;;9.97;83.42;100142.56;115811;1209;62565;-76
2021/04/11 09:50:45;;;;;;;2.53;1.70;;;;;;;9.88;83.75;100141.03;115747;1209;64079;-76
2021/04/11 09:53:31;;;;;;;3.97;2.47;;;;;;;9.79;82.90;100142.92;115833;1209;62201;-76
2021/04/11 09:56:23;;;;;;;2.83;1.93;;;;;;;9.78;82.25;100141.30;115790;1209;62402;-80
2021/04/11 09:59:31;;;;;;;3.23;1.70;;;;;;;9.84;82.00;100133.61;115767;1209;62314;-81
2021/04/11 10:02:38;;;;;;;3.33;1.50;;;;;;;9.95;81.02;100136.63;115675;1209;62380;-78
2021/04/11 10:05:26;;;;;;;2.50;1.73;;;;;;;10.10;80.22;100155.16;115587;1209;64286;-80
2021/04/11 10:08:22;;;;;;;2.00;1.40;;;;;;;10.13;78.88;100138.87;115789;1209;62308;-79
2021/04/11 10:11:16;;;;;;;1.77;1.20;;;;;;;10.20;78.30;100144.28;115638;1209;62471;-79
2021/04/11 10:14:09;;;;;;;1.73;1.27;;;;;;;10.19;77.60;100147.92;115904;1209;62354;-78
2021/04/11 10:17:03;;;;;;;1.63;1.00;;;;;;;10.11;77.62;100154.13;115795;1209;62366;-78
2021/04/11 10:19:39;;;;;;;1.60;1.13;;;;;;;10.06;78.60;100156.53;115857;1209;62122;-77
2021/04/11 10:22:37;;;;;;;1.70;0.90;;;;;;;10.05;77.52;100162.84;115819;1209;62492;-78
2021/04/11 10:25:10;;;;;;;3.53;1.37;;;;;;;10.08;78.51;100167.77;115737;1209;63194;-79
2021/04/11 10:28:05;;;;;;;2.00;1.03;;;;;;;10.15;78.36;100158.06;115778;1209;62434;-79
2021/04/11 10:30:34;;;;;;;3.13;2.00;;;;;;;10.20;78.42;100165.48;115827;1209;62397;-79
2021/04/11 10:33:26;;;;;;;1.57;0.90;;;;;;;10.11;79.19;100167.39;115801;1209;62921;-79
2021/04/11 10:36:18;;;;;;;2.03;1.20;;;;;;;10.17;78.85;100177.25;115723;1209;62470;-77
2021/04/11 10:38:53;;;;;;;2.55;1.65;;;;;;;10.17;79.19;100171.95;115658;1209;62726;-77
2021/04/11 10:41:33;;;;;;;;;;;;;;;10.10;80.09;100175.54;115825;1216;62622;-78
2021/04/11 10:44:41;;;;;;;2.75;1.90;;;;;;;10.01;80.45;100182.77;115845;1209;62504;-79
2021/04/11 10:47:34;;;;;;;3.60;2.47;;;;;;;9.78;80.69;100181.03;115660;1209;62595;-77
2021/04/11 10:50:21;;;;;;;3.80;2.80;;;;;;;9.55;81.43;100193.52;115769;1209;62417;-78
2021/04/11 10:53:02;;;;;;;3.15;2.25;;;;;;;9.50;79.92;100185.28;115870;1209;62227;-79
2021/04/11 10:55:48;;;;;;;3.70;2.75;;;;;;;9.46;80.28;100202.55;115832;1209;62296;-78
2021/04/11 10:58:33;;;;;;;3.83;2.57;;;;;;;9.36;78.96;100206.26;115884;1209;64064;-79
2021/04/11 11:01:10;;;;;;;;;;;;;;;9.37;80.13;100202.63;115903;1216;62814;-79
2021/04/11 11:04:14;;;;;;;6.03;2.97;;;;;;;9.28;79.78;100211.61;115867;1209;62799;-79
2021/04/11 11:07:21;;;;;;;3.87;2.73;;;;;;;9.29;79.62;100217.75;115830;1209;62262;-79
2021/04/11 11:10:25;;;;;;;4.20;3.17;;;;;;;9.19;79.67;100221.45;115800;1209;62886;-79
2021/04/11 11:13:12;;;;;;;4.60;3.17;;;;;;;9.12;79.75;100225.00;115832;1209;62457;-79
2021/04/11 11:16:12;;;;;;;7.60;3.13;;;;;;;8.91;79.30;100239.68;115846;1209;62852;-79
2021/04/11 11:18:52;;;;;;;5.80;3.80;;;;;;;8.72;79.76;100235.66;115758;1209;62436;-78
2021/04/11 11:21:38;;;;;;;7.27;3.40;;;;;;;8.65;80.23;100224.14;115779;1209;62231;-79
2021/04/11 11:24:35;;;;;;;6.05;3.60;;;;;;;8.60;78.99;100247.62;115829;1209;62240;-78
2021/04/11 11:27:39;;;;;;;6.20;4.10;;;;;;;8.52;78.52;100250.30;115850;1209;62968;-79
2021/04/11 11:30:21;;;;;;;4.50;3.03;;;;;;;8.46;78.51;100253.63;115832;1209;62935;-78
2021/04/11 11:33:16;;;;;;;6.50;4.20;;;;;;;8.46;78.72;100256.27;115809;1209;62208;-79
2021/04/11 11:35:58;;;;;;;5.27;3.73;;;;;;;8.44;78.70;100267.03;115824;1209;62727;-78
2021/04/11 11:38:35;;;;;;;7.50;4.50;;;;;;;8.34;79.17;100274.30;115879;1209;62540;-79
2021/04/11 11:41:10;;;;;;;5.30;3.50;;;;;;;8.23;79.00;100279.97;115874;1209;62437;-78
2021/04/11 11:43:59;;;;;;;8.40;5.25;;;;;;;8.07;78.81;100284.28;115848;1209;62956;-79
2021/04/11 11:46:47;;;;;;;9.83;5.77;;;;;;;7.91;78.98;100295.71;115851;1209;62432;-79
2021/04/11 11:49:23;;;;;;;7.20;4.77;;;;;;;7.67;78.77;100312.41;115863;1209;62251;-79
2021/04/11 11:52:17;;;;;;;7.40;5.27;;;;;;;7.54;79.06;100297.06;115861;1209;63159;-78
2021/04/11 11:55:00;;;;;;;6.35;4.05;;;;;;;7.50;79.97;100277.27;115851;1209;62167;-79
2021/04/11 11:57:49;;;;;;;6.63;3.93;;;;;;;7.61;80.12;100286.67;115844;1209;62717;-78
2021/04/11 12:00:30;;;;;;;7.23;4.43;;;;;;;7.65;79.05;100311.75;115745;1209;63274;-78
2021/04/11 12:03:14;;;;;;;6.60;4.03;;;;;;;7.63;78.31;100307.59;115827;1209;62256;-78
2021/04/11 12:05:57;;;;;;;6.63;3.83;;;;;;;7.61;77.50;100310.42;115805;1209;62392;-79
2021/04/11 12:08:58;;;;;;;7.53;4.93;;;;;;;7.57;77.40;100303.83;115745;1209;62177;-78
2021/04/11 12:11:31;;;;;;;7.77;4.50;;;;;;;7.52;77.33;100322.80;115810;1207;62290;-79
2021/04/11 12:14:45;;;;;;;9.23;5.67;;;;;;;7.48;78.03;100328.55;115787;1209;63804;-79
2021/04/11 12:17:16;;;;;;;8.87;4.80;;;;;;;7.39;77.98;100332.17;115832;1209;62828;-78
2021/04/11 12:19:56;;;;;;;8.47;4.83;;;;;;;7.24;77.91;100355.73;115824;1209;64214;-79